Airfield :
LOGIN :

Register | Disclaimer

   EN    FR    IT 

 










Legend :    VFR   Marginal VFR   IFR   Intensive IFR   Very Intensive IFR
Visi :
Ceiling :
>= 8 km
>= 3000ft
5 to 8 km
1000 to 3000 ft
1500m to 5 km
500 to 1000 ft
800 to 1500m
200 to 500 ft
< 800m
< 200 ft
Symbols :   Thunderstorms  Fog  Heavy snow  Heavy precipitations  Wind > 20 kt
SIGMETs :     Misc.  Thunderstorms  Icing  Turbulence  Mountain Waves  Volcanic Ashes







- Airport Elevation : 459 ft
- IATA code : CER
- Download approach charts


LFRC - Cherbourg / Maupertus

CURRENT METAR :
  • 191730Z AUTO 08014KT 9999 FEW019 15/11 Q1028 BECMG 08015G25KT

EXPIRED METARs :
  • 191700Z AUTO 07014KT 9999 BKN019 15/11 Q1028 BECMG 08015G25KT
  • 191630Z AUTO 07015KT 9999 FEW020 16/11 Q1028 BECMG 08015G25KT
  • 191600Z AUTO 07014KT 030V110 9999 FEW021 16/11 Q1028 BECMG 08015G25KT
  • 191530Z AUTO 07017KT 9999 FEW022 16/10 Q1028 BECMG 08015G25KT
  • 191500Z AUTO 07016KT 040V100 9999 FEW023 17/10 Q1028 BECMG 08015G25KT
  • 191430Z AUTO 07015KT 040V100 9999 FEW024 17/10 Q1029 BECMG 08015G25KT

TAF TAF LFRC
Valid from the 19 at 15:00 until the 20 at 00:00 UTC


191400Z 1915/1924 08015G25KT CAVOK
No reported NOTAMs for that airfield.



MET'MAP, your aeronautical weather chart ! - Copyright ORBIFLY December 2007 - Disclaimer

ORBIFLY MET'MAP TEAM :

Programming & Development : Alexandra Zaïnal
Concept & Development : Baudouin d'Aumeries
Co-Development & Prog : Marc-Olivier Méhu
Technical & hardware support : Manuel Goepfert

Contact : metmap@orbifly.com




SOURCES & CREDITS :

   NOAA